Time;durP1;ratioP1;P1;durP2;ratioP2;P2;SDS_P1;SDS_P2;PMS_P1;PMS_P2;Temp;Humidity;BMP_temperature;BMP_pressure;BME280_temperature;BME280_humidity;BME280_pressure;Samples;Min_cycle;Max_cycle;Signal;HPM_P1;HPM_P2
2022/05/05 00:00:32;;;;;;;5.93;4.10;;;;;;;19.73;48.37;96868.47;10347035;28;20046;-48
2022/05/05 00:05:51;;;;;;;5.13;3.50;;;;;;;19.73;48.36;96871.19;10305087;28;20046;-50
2022/05/05 00:16:52;;;;;;;6.60;3.67;;;;;;;19.73;48.28;96878.50;10321004;28;20054;-49
2022/05/05 00:22:11;;;;;;;6.35;3.92;;;;;;;19.72;48.30;96885.03;10322164;28;20494;-48
2022/05/05 00:27:31;;;;;;;6.05;3.60;;;;;;;19.71;48.34;96875.31;10299628;28;20047;-49
2022/05/05 00:32:51;;;;;;;5.40;3.53;;;;;;;19.71;48.26;96870.72;10310876;28;20054;-47
2022/05/05 00:38:10;;;;;;;6.43;3.88;;;;;;;19.71;48.25;96878.00;10318113;28;20054;-51
2022/05/05 00:43:30;;;;;;;4.93;3.42;;;;;;;19.70;48.29;96879.13;10322647;28;20053;-49
2022/05/05 00:48:50;;;;;;;6.22;3.90;;;;;;;19.69;48.31;96883.72;10311163;28;20050;-51
2022/05/05 00:54:10;;;;;;;5.88;3.83;;;;;;;19.68;48.34;96876.75;10324182;28;20046;-48
2022/05/05 00:59:30;;;;;;;4.35;3.25;;;;;;;19.69;48.24;96872.91;10298895;28;20042;-51
2022/05/05 01:04:49;;;;;;;5.57;3.40;;;;;;;19.68;48.15;96865.13;10310252;28;20054;-50
2022/05/05 01:10:09;;;;;;;4.95;3.60;;;;;;;19.68;48.11;96875.94;10315012;28;20393;-49
2022/05/05 01:15:30;;;;;;;5.60;3.40;;;;;;;19.67;48.14;96871.66;10304067;28;20106;-50
2022/05/05 01:20:55;;;;;;;5.13;3.78;;;;;;;19.65;48.08;96869.28;10303425;28;20548;-49
2022/05/05 01:31:52;;;;;;;5.33;3.27;;;;;;;19.66;48.09;96878.16;10329311;28;20062;-48
2022/05/05 01:37:12;;;;;;;4.53;3.30;;;;;;;19.64;48.13;96883.09;10330796;28;20650;-50
2022/05/05 01:42:31;;;;;;;3.95;3.05;;;;;;;19.63;48.09;96893.13;10327581;28;20100;-50
2022/05/05 01:47:51;;;;;;;5.00;3.33;;;;;;;19.63;48.06;96886.94;10330018;28;20050;-51
2022/05/05 01:53:10;;;;;;;4.13;3.17;;;;;;;19.63;48.05;96889.63;10316322;28;20054;-49
2022/05/05 01:58:30;;;;;;;6.03;3.58;;;;;;;19.63;48.07;96895.03;10331161;28;20047;-50
2022/05/05 02:03:50;;;;;;;4.18;3.10;;;;;;;19.63;48.00;96897.75;10314454;28;20175;-50
2022/05/05 02:09:09;;;;;;;4.95;3.05;;;;;;;19.61;48.02;96899.97;10306586;28;20062;-48
2022/05/05 02:14:28;;;;;;;5.93;3.10;;;;;;;19.61;47.96;96900.75;10312673;28;20054;-49
2022/05/05 02:19:48;;;;;;;4.05;3.15;;;;;;;19.60;47.96;96899.19;10300509;28;20058;-50
2022/05/05 02:25:08;;;;;;;4.35;3.00;;;;;;;19.60;48.06;96903.78;10299999;28;20417;-50
2022/05/05 02:30:28;;;;;;;3.67;2.88;;;;;;;19.59;48.03;96896.81;10323364;28;20059;-50
2022/05/05 02:38:42;;;;;;;3.53;3.10;;;;;;;19.60;47.80;96901.91;10328216;28;20046;-51
2022/05/05 02:41:27;;;;;;;4.97;3.45;;;;;;;19.59;47.96;96894.09;10312101;28;20441;-50
2022/05/05 02:46:47;;;;;;;4.75;3.03;;;;;;;19.57;47.96;96891.72;10312319;28;20514;-50
2022/05/05 02:52:07;;;;;;;5.35;3.17;;;;;;;19.58;47.89;96898.69;10338351;28;20100;-50
2022/05/05 02:57:26;;;;;;;4.32;3.20;;;;;;;19.58;47.89;96897.91;10320936;28;20058;-50
2022/05/05 03:02:45;;;;;;;4.80;3.15;;;;;;;19.55;47.90;96900.13;10319480;28;20182;-50
2022/05/05 03:08:05;;;;;;;4.18;2.95;;;;;;;19.56;47.86;96898.22;10311275;28;20450;-50
2022/05/05 03:13:25;;;;;;;4.45;3.25;;;;;;;19.55;47.95;96894.72;10318077;28;20061;-50
2022/05/05 03:18:44;;;;;;;3.95;3.10;;;;;;;19.55;47.85;96899.34;10320769;28;20046;-48
2022/05/05 03:24:04;;;;;;;3.40;2.78;;;;;;;19.54;47.85;96895.88;10326329;28;20062;-50
2022/05/05 03:29:24;;;;;;;3.85;3.15;;;;;;;19.52;47.97;96900.78;10325645;28;20057;-48
2022/05/05 03:34:43;;;;;;;3.78;2.95;;;;;;;19.53;47.97;96904.28;10321755;28;20453;-49
2022/05/05 03:40:03;;;;;;;5.63;3.28;;;;;;;19.52;47.93;96905.38;10308467;28;20058;-50
2022/05/05 03:45:22;;;;;;;3.10;2.47;;;;;;;19.51;47.87;96904.59;10305427;28;20067;-50
2022/05/05 03:50:42;;;;;;;5.70;3.08;;;;;;;19.51;47.88;96904.59;10312905;28;20468;-48
2022/05/05 03:56:03;;;;;;;4.15;3.03;;;;;;;19.52;47.70;96910.78;10308571;28;20050;-48
2022/05/05 04:01:22;;;;;;;3.47;2.63;;;;;;;19.52;47.94;96927.81;10315894;28;20121;-50
2022/05/05 04:06:42;;;;;;;3.35;2.80;;;;;;;19.52;48.55;96922.41;10288866;28;20551;-48
2022/05/05 04:12:01;;;;;;;3.30;2.67;;;;;;;19.53;48.77;96926.69;10313934;28;20050;-50
2022/05/05 04:17:21;;;;;;;3.08;2.58;;;;;;;19.54;48.86;96928.28;10308714;28;20694;-49
2022/05/05 04:22:43;;;;;;;2.92;2.47;;;;;;;19.58;48.96;96930.34;10323440;28;20430;-49
2022/05/05 04:28:03;;;;;;;4.32;2.30;;;;;;;19.58;48.93;96933.81;10320023;28;20050;-51
2022/05/05 04:33:23;;;;;;;2.72;2.22;;;;;;;19.60;49.01;96931.63;10323577;28;20409;-49
2022/05/05 04:38:43;;;;;;;2.85;2.13;;;;;;;19.62;48.93;96942.91;10336287;28;20525;-49
2022/05/05 04:44:03;;;;;;;3.95;2.03;;;;;;;19.64;48.80;96947.97;10342451;28;20397;-50
2022/05/05 04:49:23;;;;;;;3.00;2.40;;;;;;;19.64;48.90;96951.47;10334016;28;20062;-49
2022/05/05 04:54:43;;;;;;;11.68;4.88;;;;;;;19.64;48.28;96958.78;10322687;28;20105;-51
2022/05/05 05:00:05;;;;;;;7.13;4.50;;;;;;;19.53;47.43;96959.13;10351269;28;20490;-48
2022/05/05 05:05:24;;;;;;;5.60;3.45;;;;;;;19.58;48.16;96962.75;10330880;28;20042;-51
2022/05/05 05:10:44;;;;;;;5.78;3.22;;;;;;;19.63;48.19;96959.91;10333776;28;20713;-51
2022/05/05 05:16:04;;;;;;;7.68;4.13;;;;;;;19.66;48.09;96961.94;10307598;28;20553;-51
2022/05/05 05:21:23;;;;;;;6.82;3.67;;;;;;;19.70;48.04;96971.03;10331858;28;20069;-48
2022/05/05 05:26:42;;;;;;;7.90;3.80;;;;;;;19.73;48.06;96982.00;10331113;28;20463;-50
2022/05/05 05:32:02;;;;;;;8.75;4.20;;;;;;;19.76;48.08;96980.59;10333500;28;20061;-51
2022/05/05 05:37:21;;;;;;;8.38;4.18;;;;;;;19.79;48.11;96985.34;10336520;28;20061;-49
2022/05/05 05:42:41;;;;;;;7.47;4.32;;;;;;;19.82;48.01;96984.72;10337157;28;20054;-48
2022/05/05 05:48:01;;;;;;;8.07;4.18;;;;;;;19.85;48.14;97000.28;10319659;28;20178;-50
2022/05/05 05:53:21;;;;;;;7.53;4.07;;;;;;;19.87;48.08;96998.03;10349017;28;20047;-51
2022/05/05 05:58:41;;;;;;;6.95;4.03;;;;;;;19.90;47.94;97008.22;10330408;28;20609;-51
2022/05/05 06:04:00;;;;;;;7.80;4.22;;;;;;;19.92;48.06;97002.50;10333779;28;20043;-49
2022/05/05 06:09:20;;;;;;;7.80;3.97;;;;;;;19.95;47.93;97004.53;10338852;28;20127;-49
2022/05/05 06:14:39;;;;;;;9.52;4.20;;;;;;;19.94;47.98;97003.75;10303566;28;20062;-51
2022/05/05 06:19:59;;;;;;;6.03;3.78;;;;;;;19.97;47.91;97009.63;10334965;28;20061;-51
2022/05/05 06:25:20;;;;;;;6.47;3.90;;;;;;;19.99;47.93;97020.94;10312306;28;20054;-51
2022/05/05 06:30:40;;;;;;;8.65;3.88;;;;;;;20.01;47.93;97016.00;10332468;28;20057;-50
2022/05/05 06:35:59;;;;;;;7.18;3.60;;;;;;;20.02;47.77;97026.50;10295302;28;20054;-50
2022/05/05 06:41:20;;;;;;;5.03;3.42;;;;;;;20.03;47.85;97028.09;10326868;28;20065;-50
2022/05/05 06:46:39;;;;;;;7.30;4.00;;;;;;;20.04;47.72;97034.28;10312724;28;20047;-50
2022/05/05 06:51:59;;;;;;;7.65;3.80;;;;;;;20.04;47.64;97039.69;10329170;28;20051;-49
2022/05/05 06:57:19;;;;;;;7.80;3.58;;;;;;;20.05;47.56;97041.28;10299110;28;20055;-51
2022/05/05 07:02:38;;;;;;;5.40;3.28;;;;;;;20.06;47.69;97043.66;10314529;28;20482;-48
2022/05/05 07:07:57;;;;;;;4.68;3.25;;;;;;;20.06;47.77;97045.56;10324050;28;20487;-48
2022/05/05 07:13:17;;;;;;;5.50;3.50;;;;;;;20.06;47.57;97049.06;10318596;28;20070;-51
2022/05/05 07:18:37;;;;;;;5.80;3.50;;;;;;;20.08;47.58;97056.88;10320353;28;20536;-48
2022/05/05 07:23:57;;;;;;;5.95;3.35;;;;;;;20.07;47.73;97057.97;10307703;28;20684;-51
2022/05/05 07:29:16;;;;;;;5.78;3.38;;;;;;;20.07;47.51;97066.09;10316053;28;20051;-50
2022/05/05 07:34:36;;;;;;;5.88;3.30;;;;;;;20.07;47.50;97071.50;10310772;28;20054;-49
2022/05/05 07:39:56;;;;;;;5.00;3.15;;;;;;;20.09;47.50;97066.56;10312430;28;20057;-49
2022/05/05 07:45:15;;;;;;;4.70;3.05;;;;;;;20.07;47.52;97066.91;10303289;28;20061;-50
2022/05/05 07:50:35;;;;;;;4.55;3.17;;;;;;;20.08;47.60;97073.88;10327865;28;20038;-51
2022/05/05 07:55:54;;;;;;;4.28;2.97;;;;;;;20.09;47.49;97072.78;10307267;28;20062;-50
2022/05/05 08:01:14;;;;;;;4.97;3.28;;;;;;;20.09;47.48;97071.97;10331546;28;20074;-51
2022/05/05 08:06:33;;;;;;;4.72;3.42;;;;;;;20.09;47.46;97080.91;10315801;28;20042;-50
2022/05/05 08:11:53;;;;;;;4.63;3.10;;;;;;;20.09;47.39;97080.91;10292546;28;20098;-51
2022/05/05 08:17:12;;;;;;;4.53;3.25;;;;;;;20.09;47.45;97082.78;10322711;28;20065;-51
2022/05/05 08:22:31;;;;;;;4.65;3.20;;;;;;;20.09;47.43;97091.72;10297321;28;20557;-48
2022/05/05 08:33:29;;;;;;;5.03;3.10;;;;;;;20.10;47.37;97092.50;10330896;28;20517;-51
2022/05/05 08:38:49;;;;;;;3.53;2.90;;;;;;;20.10;47.44;97096.00;10320970;28;20050;-50
2022/05/05 08:44:09;;;;;;;4.38;3.10;;;;;;;20.10;47.47;97098.69;10339046;28;20052;-49
2022/05/05 08:49:29;;;;;;;4.45;3.05;;;;;;;20.10;47.45;97097.91;10294443;28;20522;-51
2022/05/05 08:54:49;;;;;;;4.25;2.78;;;;;;;20.09;47.43;97107.94;10336538;28;20054;-49
2022/05/05 09:00:10;;;;;;;4.38;2.85;;;;;;;20.09;47.43;97102.53;10322421;28;20100;-51
2022/05/05 09:05:44;;;;;;;4.85;2.97;;;;;;;20.09;47.35;97107.13;10328677;28;20490;-51
2022/05/05 09:11:05;;;;;;;3.78;2.83;;;;;;;20.10;47.27;97109.50;10316098;28;20054;-50
2022/05/05 09:16:28;;;;;;;3.20;2.50;;;;;;;20.10;47.27;97109.50;10289875;28;20062;-51
2022/05/05 09:21:48;;;;;;;3.45;2.70;;;;;;;20.09;47.44;97115.25;10310340;28;20054;-48
2022/05/05 09:27:15;;;;;;;3.47;2.65;;;;;;;20.09;47.26;97118.75;10302598;28;20114;-50
2022/05/05 09:32:37;;;;;;;3.03;2.45;;;;;;;20.10;47.24;97124.97;10319864;28;20184;-51
2022/05/05 09:37:56;;;;;;;3.95;2.47;;;;;;;20.09;47.39;97126.06;10312631;28;20054;-51
2022/05/05 09:43:27;;;;;;;3.33;2.60;;;;;;;20.09;47.35;97128.75;10323101;28;20065;-51
2022/05/05 09:48:47;;;;;;;3.13;2.20;;;;;;;20.11;47.23;97137.34;10325020;28;20043;-51
2022/05/05 09:59:51;;;;;;;4.15;2.50;;;;;;;20.11;47.38;97142.75;10306132;28;20094;-51
2022/05/05 10:05:12;;;;;;;2.75;2.30;;;;;;;20.09;47.48;97148.50;10335724;28;20545;-51
2022/05/05 10:10:32;;;;;;;3.75;2.38;;;;;;;20.10;47.42;97139.28;10327570;28;20055;-50
2022/05/05 10:15:52;;;;;;;3.13;2.30;;;;;;;20.10;47.21;97130.38;10327227;28;20081;-51
2022/05/05 10:21:44;;;;;;;3.50;2.45;;;;;;;20.09;47.43;97126.88;10298449;28;20501;-51
2022/05/05 10:27:04;;;;;;;3.67;2.50;;;;;;;20.11;47.28;97126.53;10297373;28;20055;-50
2022/05/05 10:32:28;;;;;;;2.95;2.40;;;;;;;20.11;47.44;97121.13;10303892;28;20062;-50
2022/05/05 10:37:47;;;;;;;2.78;2.13;;;;;;;20.12;47.34;97133.53;10321662;28;20474;-48
2022/05/05 10:43:09;;;;;;;2.80;2.40;;;;;;;20.11;47.33;97131.94;10324589;28;20044;-51
2022/05/05 10:48:29;;;;;;;2.47;2.22;;;;;;;20.11;47.30;97123.81;10317701;28;20046;-51
2022/05/05 10:53:49;;;;;;;2.22;1.95;;;;;;;20.11;47.53;97130.06;10326116;28;20541;-51
2022/05/05 10:59:09;;;;;;;3.28;2.17;;;;;;;20.11;47.28;97126.53;10324658;28;20049;-50
2022/05/05 11:04:30;;;;;;;3.72;2.38;;;;;;;20.10;47.44;97119.53;10310535;28;20062;-51
2022/05/05 11:09:50;;;;;;;3.13;2.40;;;;;;;20.11;47.38;97121.94;10316557;28;20049;-49
2022/05/05 11:26:32;;;;;;;2.55;2.35;;;;;;;20.10;47.37;97117.63;10298506;28;20058;-51
2022/05/05 11:32:00;;;;;;;2.55;2.03;;;;;;;20.09;47.46;97112.53;10317234;28;20074;-48
2022/05/05 11:37:19;;;;;;;3.05;2.17;;;;;;;20.10;47.48;97114.94;10326398;28;20046;-51
2022/05/05 11:48:24;;;;;;;2.80;2.08;;;;;;;20.08;47.39;97108.25;10304098;28;20039;-51
2022/05/05 11:53:44;;;;;;;2.97;2.00;;;;;;;20.08;47.48;97117.16;10314550;28;20512;-51
2022/05/05 12:04:53;;;;;;;2.67;2.00;;;;;;;20.08;47.50;97109.03;10318866;28;20065;-50
2022/05/05 12:10:14;;;;;;;2.20;2.00;;;;;;;20.08;47.26;97100.16;10332905;28;20246;-50
2022/05/05 12:15:33;;;;;;;2.45;2.10;;;;;;;20.08;47.52;97089.31;10303686;28;20050;-48
2022/05/05 12:20:53;;;;;;;2.28;2.08;;;;;;;20.08;47.28;97081.22;10317260;28;20054;-49
2022/05/05 12:26:17;;;;;;;2.30;1.90;;;;;;;20.10;47.37;97087.09;10322897;28;20050;-49
2022/05/05 12:31:37;;;;;;;2.60;2.30;;;;;;;20.10;47.42;97084.38;10304788;28;20058;-48
2022/05/05 12:37:09;;;;;;;2.75;2.10;;;;;;;20.09;47.42;97078.19;10325481;28;20486;-51
2022/05/05 12:42:49;;;;;;;2.30;2.10;;;;;;;20.08;47.54;97079.28;10316837;28;20057;-51
2022/05/05 12:48:10;;;;;;;2.30;2.10;;;;;;;20.09;47.42;97075.50;10298033;28;20061;-51
2022/05/05 13:04:48;;;;;;;3.73;2.00;;;;;;;20.10;47.49;97073.56;10333662;28;20113;-51
2022/05/05 13:10:08;;;;;;;2.10;1.80;;;;;;;20.10;47.60;97074.34;10326590;28;20560;-49
2022/05/05 13:15:28;;;;;;;3.47;2.08;;;;;;;20.10;47.43;97065.44;10327611;28;20102;-50
2022/05/05 13:20:47;;;;;;;2.85;1.98;;;;;;;20.10;47.63;97076.28;10323386;28;20112;-49
2022/05/05 13:26:06;;;;;;;2.55;1.95;;;;;;;20.11;47.44;97075.97;10317543;28;20050;-51
2022/05/05 13:31:26;;;;;;;2.47;1.95;;;;;;;20.10;47.50;97070.88;10314928;28;20120;-50
2022/05/05 13:36:45;;;;;;;2.53;1.90;;;;;;;20.10;47.66;97076.28;10326994;28;20047;-49
2022/05/05 13:42:05;;;;;;;2.65;1.75;;;;;;;20.09;47.49;97078.19;10311892;28;20058;-50
2022/05/05 13:47:25;;;;;;;2.25;1.65;;;;;;;20.09;47.45;97074.66;10326542;28;20101;-50
2022/05/05 13:52:45;;;;;;;1.83;1.63;;;;;;;20.08;47.58;97073.88;10308863;28;20054;-50
2022/05/05 13:58:05;;;;;;;2.22;1.65;;;;;;;20.08;47.57;97070.41;10308005;28;20419;-50
2022/05/05 14:03:24;;;;;;;2.38;1.90;;;;;;;20.08;47.52;97083.91;10326953;28;20057;-50
2022/05/05 14:14:23;;;;;;;1.60;1.50;;;;;;;20.07;47.44;97080.44;10316938;28;20062;-50
2022/05/05 14:19:43;;;;;;;1.67;1.58;;;;;;;20.06;47.56;97076.13;10310251;28;20061;-48
2022/05/05 14:25:03;;;;;;;3.42;1.75;;;;;;;20.05;47.52;97068.31;10323210;28;20050;-51
2022/05/05 14:30:24;;;;;;;1.73;1.63;;;;;;;20.06;47.61;97080.75;10318466;28;20047;-51
2022/05/05 14:35:43;;;;;;;1.80;1.63;;;;;;;20.05;47.46;97068.31;10331498;28;20548;-50
2022/05/05 14:41:03;;;;;;;2.38;2.17;;;;;;;20.06;47.70;97068.00;10323196;28;20049;-50
2022/05/05 14:46:22;;;;;;;2.28;2.05;;;;;;;20.07;47.73;97076.91;10323859;28;20050;-50
2022/05/05 14:51:42;;;;;;;5.75;5.10;;;;;;;20.05;46.49;97079.13;10325645;28;20069;-50
2022/05/05 14:57:02;;;;;;;6.10;4.80;;;;;;;20.01;45.85;97075.47;10322391;28;20047;-50
2022/05/05 15:02:21;;;;;;;4.63;4.22;;;;;;;20.02;46.01;97068.97;10316578;28;20058;-51
2022/05/05 15:07:41;;;;;;;5.57;4.00;;;;;;;20.01;45.94;97070.84;10328663;28;20104;-49
2022/05/05 15:13:01;;;;;;;5.17;4.77;;;;;;;20.00;45.73;97068.50;10280304;28;1160006;-51
2022/05/05 15:18:21;;;;;;;5.57;5.07;;;;;;;20.01;45.91;97072.78;10311542;28;20291;-48
2022/05/05 15:23:41;;;;;;;6.40;4.18;;;;;;;19.99;45.63;97059.56;10313097;28;20057;-50
2022/05/05 15:29:00;;;;;;;17.25;4.63;;;;;;;19.99;45.58;97070.38;10325744;28;20050;-50
2022/05/05 15:34:20;;;;;;;5.45;4.82;;;;;;;19.98;45.35;97063.41;10344556;28;20053;-51
2022/05/05 15:39:39;;;;;;;5.18;4.78;;;;;;;19.98;45.06;97062.63;10306892;28;20066;-49
2022/05/05 15:44:58;;;;;;;6.03;5.40;;;;;;;19.98;45.31;97071.53;10302803;28;20054;-48
2022/05/05 15:50:20;;;;;;;6.20;5.60;;;;;;;19.97;45.46;97069.13;10419341;23;20397;-92
2022/05/05 15:55:47;;;;;;;5.57;5.07;;;;;;;19.97;46.02;97074.53;10353358;28;20101;-92
2022/05/05 16:01:21;;;;;;;5.35;4.70;;;;;;;19.97;46.35;97082.66;10344985;28;20057;-93
2022/05/05 16:06:42;;;;;;;4.80;4.40;;;;;;;19.97;46.36;97088.06;10341633;28;21523;-92
2022/05/05 16:12:02;;;;;;;4.32;4.03;;;;;;;19.95;46.86;97091.06;10333445;28;20679;-92
2022/05/05 16:17:22;;;;;;;5.72;4.20;;;;;;;19.97;47.09;97088.84;10310157;28;20511;-92
2022/05/05 16:22:44;;;;;;;5.50;4.10;;;;;;;19.95;47.08;97094.59;10328876;28;20108;-92
2022/05/05 16:34:03;;;;;;;4.82;4.00;;;;;;;19.94;47.39;97087.59;10330093;28;20180;-92
2022/05/05 16:39:33;;;;;;;5.25;4.10;;;;;;;19.95;47.37;97085.66;10320482;28;20042;-93
2022/05/05 16:44:53;;;;;;;4.72;3.75;;;;;;;19.94;47.69;97101.09;10351458;28;20039;-92
2022/05/05 16:50:16;;;;;;;4.35;3.95;;;;;;;19.94;47.62;97098.41;10298580;28;20086;-92
2022/05/05 16:55:42;;;;;;;4.50;3.90;;;;;;;19.97;47.74;97117.81;10297660;28;20053;-92
2022/05/05 17:01:02;;;;;;;5.82;3.90;;;;;;;19.94;47.68;97111.91;10317678;28;20042;-92
2022/05/05 17:06:29;;;;;;;4.05;3.75;;;;;;;19.94;47.67;97122.72;10293381;28;20053;-93
2022/05/05 17:11:57;;;;;;;5.07;3.90;;;;;;;19.94;47.72;97127.34;10334977;28;20071;-93
2022/05/05 17:17:24;;;;;;;4.70;3.70;;;;;;;19.94;47.66;97132.75;10345792;23;20054;-53
2022/05/05 17:22:44;;;;;;;4.20;3.90;;;;;;;19.93;47.70;97137.38;8540118;28;10001431;-47
2022/05/05 17:28:05;;;;;;;4.10;3.80;;;;;;;19.94;47.70;97157.88;8202903;28;10002038;-49
2022/05/05 17:33:25;;;;;;;3.88;3.53;;;;;;;19.93;47.72;97161.72;10301216;28;20481;-49
2022/05/05 17:50:57;;;;;;;4.80;3.50;;;;;;;19.96;47.75;97165.69;10321239;28;20113;-93
2022/05/05 17:56:47;;;;;;;4.07;3.77;;;;;;;19.99;47.73;97166.94;10267778;28;20067;-93
2022/05/05 18:02:15;;;;;;;3.35;3.05;;;;;;;19.98;47.68;97174.28;10271176;28;20142;-93
2022/05/05 18:07:43;;;;;;;3.90;3.55;;;;;;;19.94;47.72;97171.41;10271403;28;20153;-93
2022/05/05 18:13:18;;;;;;;3.70;3.40;;;;;;;19.92;47.64;97184.44;10275511;28;20545;-92
2022/05/05 18:18:52;;;;;;;6.03;3.42;;;;;;;19.91;47.73;97185.56;10263543;28;20057;-92
2022/05/05 18:24:28;;;;;;;3.75;3.45;;;;;;;19.89;47.84;97185.06;10269185;28;20132;-92
2022/05/05 18:29:53;;;;;;;3.47;3.20;;;;;;;19.88;47.76;97193.53;10324978;28;20111;-91
2022/05/05 18:35:20;;;;;;;4.63;3.55;;;;;;;19.86;47.81;97201.94;10318341;28;20111;-93
2022/05/05 18:40:44;;;;;;;4.47;3.58;;;;;;;19.87;48.11;97198.13;10297503;28;20064;-91
2022/05/05 18:46:05;;;;;;;3.22;2.92;;;;;;;19.86;48.10;97204.66;10290876;28;20429;-91
2022/05/05 18:51:25;;;;;;;3.28;3.08;;;;;;;19.85;48.32;97204.97;10278116;28;20058;-92
2022/05/05 18:56:45;;;;;;;3.92;3.58;;;;;;;19.83;48.45;97210.69;10327504;28;20410;-92
2022/05/05 19:02:06;;;;;;;3.03;2.83;;;;;;;19.82;48.33;97214.50;10290273;28;20054;-91
2022/05/05 19:07:26;;;;;;;3.72;3.30;;;;;;;19.82;48.37;97224.53;10335614;28;20074;-91
2022/05/05 19:12:49;;;;;;;3.38;3.13;;;;;;;19.81;48.46;97221.00;10310237;28;20118;-92
2022/05/05 19:18:11;;;;;;;3.22;2.95;;;;;;;19.82;48.72;97236.13;10278343;28;20097;-92
2022/05/05 19:23:32;;;;;;;3.05;2.80;;;;;;;19.81;48.67;97248.03;10289929;28;20497;-91
2022/05/05 19:28:52;;;;;;;2.90;2.63;;;;;;;19.81;48.39;97248.03;10322089;28;20053;-92
2022/05/05 19:34:12;;;;;;;3.67;3.00;;;;;;;19.81;48.52;97261.56;10291088;28;20526;-92
2022/05/05 19:39:36;;;;;;;3.45;3.00;;;;;;;19.79;48.60;97261.09;10299596;28;20050;-93
2022/05/05 19:44:59;;;;;;;3.58;3.28;;;;;;;19.79;48.47;97266.50;10308972;28;20089;-92
2022/05/05 19:50:20;;;;;;;2.95;2.75;;;;;;;19.78;48.51;97267.63;10299168;28;20057;-91
2022/05/05 20:01:24;;;;;;;3.15;2.85;;;;;;;19.77;48.58;97255.19;10312424;28;20051;-92
2022/05/05 20:12:24;;;;;;;2.78;2.58;;;;;;;19.76;48.60;97272.53;10309721;28;20050;-92
2022/05/05 20:17:47;;;;;;;3.08;2.83;;;;;;;19.75;48.72;97282.53;10319940;28;20042;-91
2022/05/05 20:23:10;;;;;;;3.15;2.85;;;;;;;19.74;48.96;97285.56;10295531;28;20382;-92
2022/05/05 20:28:29;;;;;;;3.53;3.20;;;;;;;19.75;49.10;97287.16;10273873;28;20456;-92
2022/05/05 20:33:54;;;;;;;3.13;2.90;;;;;;;19.76;49.44;97288.75;10296756;28;20134;-92
2022/05/05 20:45:04;;;;;;;3.90;3.10;;;;;;;19.78;49.45;97293.81;10252804;28;20070;-92
2022/05/05 20:50:30;;;;;;;3.40;3.10;;;;;;;19.79;49.36;97292.72;10217832;28;20495;-92
2022/05/05 20:56:02;;;;;;;3.25;2.95;;;;;;;19.78;49.48;97300.06;10249876;28;20069;-92
2022/05/05 21:01:22;;;;;;;4.63;2.95;;;;;;;19.79;49.50;97298.94;10226408;29;20039;-92
2022/05/05 21:06:43;;;;;;;3.33;3.03;;;;;;;19.79;49.46;97298.94;10248136;28;20130;-92
2022/05/05 21:12:09;;;;;;;3.25;2.85;;;;;;;19.78;49.57;97297.34;10235280;28;20046;-92
2022/05/05 21:17:28;;;;;;;3.65;3.10;;;;;;;19.79;49.57;97306.25;10235591;28;20042;-91
2022/05/05 21:28:39;;;;;;;3.10;2.90;;;;;;;19.78;49.52;97308.16;10266018;28;20105;-92
2022/05/05 21:34:05;;;;;;;3.10;2.90;;;;;;;19.78;49.69;97310.88;10239022;28;20115;-93
2022/05/05 21:39:34;;;;;;;3.97;2.80;;;;;;;19.79;49.54;97319.75;10250512;28;20482;-93
2022/05/05 21:45:02;;;;;;;3.03;2.72;;;;;;;19.77;49.79;97320.06;10262872;28;20066;-92
2022/05/05 21:50:33;;;;;;;3.22;2.92;;;;;;;19.79;49.70;97322.47;10270675;28;20035;-92
2022/05/05 21:55:54;;;;;;;2.78;2.58;;;;;;;19.77;49.54;97314.66;10257084;28;20054;-92
2022/05/05 22:01:16;;;;;;;2.95;2.72;;;;;;;19.74;49.46;97308.00;10284492;28;20138;-92
2022/05/05 22:06:39;;;;;;;3.03;2.72;;;;;;;19.73;49.35;97313.69;10295892;28;20049;-92
2022/05/05 22:12:01;;;;;;;2.78;2.58;;;;;;;19.72;49.40;97304.00;10283455;28;20053;-92
2022/05/05 22:17:22;;;;;;;3.17;2.78;;;;;;;19.71;49.31;97303.19;10299695;28;20051;-91
2022/05/05 22:22:43;;;;;;;2.75;2.53;;;;;;;19.70;49.33;97300.78;10295629;28;20508;-92
2022/05/05 22:28:04;;;;;;;2.33;2.22;;;;;;;19.69;49.50;97302.69;10273082;28;20117;-91
2022/05/05 22:33:24;;;;;;;2.65;2.45;;;;;;;19.68;49.32;97303.81;10265325;28;20086;-91
2022/05/05 22:38:44;;;;;;;2.60;2.40;;;;;;;19.68;49.51;97311.91;10277225;28;20125;-91
2022/05/05 22:44:07;;;;;;;3.00;2.67;;;;;;;19.68;49.60;97305.69;10236771;28;20451;-91
2022/05/05 22:55:06;;;;;;;2.70;2.50;;;;;;;19.66;49.52;97311.44;10275961;28;20490;-92
2022/05/05 23:00:29;;;;;;;2.60;2.40;;;;;;;19.65;49.43;97319.84;10252106;28;20047;-92
2022/05/05 23:05:49;;;;;;;2.88;2.67;;;;;;;19.65;49.40;97314.44;10256265;28;20074;-92
2022/05/05 23:11:09;;;;;;;2.40;2.20;;;;;;;19.64;49.52;97316.34;10276427;28;20517;-92
2022/05/05 23:16:29;;;;;;;2.67;2.47;;;;;;;19.63;49.46;97303.94;10270489;28;20051;-92
2022/05/05 23:21:49;;;;;;;2.20;2.10;;;;;;;19.62;49.52;97301.53;10261910;28;20047;-92
2022/05/05 23:27:10;;;;;;;2.67;2.47;;;;;;;19.64;49.47;97304.72;10266130;28;20535;-92
2022/05/05 23:32:29;;;;;;;2.88;2.50;;;;;;;19.61;49.35;97297.25;10256558;28;20468;-92
2022/05/05 23:37:50;;;;;;;2.60;2.40;;;;;;;19.62;49.42;97293.44;10269867;28;20043;-92
2022/05/05 23:43:11;;;;;;;2.30;2.10;;;;;;;19.62;49.33;97285.31;10256723;28;20050;-92
2022/05/05 23:48:30;;;;;;;2.15;2.05;;;;;;;19.60;49.45;97296.47;10259816;28;20042;-92
2022/05/05 23:53:51;;;;;;;2.50;2.20;;;;;;;19.60;49.49;97296.47;10284291;28;20038;-92
2022/05/05 23:59:11;;;;;;;2.45;2.10;;;;;;;19.60;49.36;97301.88;10263261;28;20453;-92
